Overview Statistics Trail Chart Weather Telemetry Raw packets
 

This is the latest recevied weather packets stored in our database for station/object K3RUP-1. If no packets are shown the sender has not sent any weather packets the latest 10 day(s).

<< 10 11 12 13 14 15 16 >>
Time Temp. Humidity Pressure Rain* Wind** Luminosity Snow
1788624158 25.56° C 76% 1011.7 hPa 0 mm - 187 W/m² -
1788623853 25.56° C 76% 1011.6 hPa 0 mm - 160 W/m² -
1788623551 25° C 73% 1011.8 hPa 0 mm - 124 W/m² -
1788623245 25.56° C 76% 1011.8 hPa 0 mm - 84 W/m² -
1788622941 26.11° C 73% 1012 hPa 0 mm - 130 W/m² -
1788622637 26.11° C 73% 1012 hPa 0 mm - 206 W/m² -
1788622333 25.56° C 74% 1011.8 hPa 0 mm - 179 W/m² -
1788622027 25.56° C 72% 1012 hPa 0 mm - 197 W/m² -
1788621722 25.56° C 74% 1012 hPa 0 mm - 157 W/m² -
1788621422 25.56° C 76% 1011.9 hPa 0 mm - 177 W/m² -
1788621117 25.56° C 77% 1011.8 hPa 0 mm - 228 W/m² -
1788620812 26.11° C 77% 1011.9 hPa 0 mm - 209 W/m² -
1788620511 26.11° C 76% 1011.7 hPa 0 mm - 200 W/m² -
1788620209 25.56° C 76% 1011.9 hPa 0 mm - 198 W/m² -
1788619903 26.11° C 79% 1011.6 hPa 0 mm - 184 W/m² -
1788619598 25.56° C 81% 1011.6 hPa 0 mm - 255 W/m² -
1788619297 25.56° C 80% 1011.7 hPa 0 mm - 241 W/m² -
1788618996 25.56° C 81% 1011.4 hPa 0 mm - 140 W/m² -
1788618686 25.56° C 80% 1011.4 hPa 0 mm - 162 W/m² -
1788618385 25.56° C 78% 1011.3 hPa 0 mm - 170 W/m² -
1788618079 25.56° C 79% 1011.3 hPa 0 mm - 170 W/m² -
1788617779 25.56° C 78% 1011.3 hPa 0 mm - 155 W/m² -
1788617476 25.56° C 78% 1011.3 hPa 0 mm - 155 W/m² -
1788617170 25.56° C 77% 1011.3 hPa 0 mm - 140 W/m² -
1788616869 25.56° C 76% 1011.4 hPa 0 mm - 128 W/m² -

* Rain latest hour (hover to see other rain measurements)
** Current wind speed in m/s (hover to see current wind gust speed)